Time;durP1;ratioP1;P1;durP2;ratioP2;P2;SDS_P1;SDS_P2;PMS_P1;PMS_P2;Temp;Humidity;BMP_temperature;BMP_pressure;BME280_temperature;BME280_humidity;BME280_pressure;Samples;Min_cycle;Max_cycle;Signal;HPM_P1;HPM_P2
2022/12/28 00:01:36;;;;;;;8.00;4.03;;;5.50;99.90;;;;;;5033670;28;20018;-53
2022/12/28 00:04:22;;;;;;;6.93;4.50;;;5.50;99.90;;;;;;5034733;28;20466;-51
2022/12/28 00:07:08;;;;;;;8.35;4.38;;;5.50;99.90;;;;;;5035640;28;20029;-55
2022/12/28 00:09:54;;;;;;;10.73;5.20;;;5.50;99.90;;;;;;5035516;28;20033;-54
2022/12/28 00:12:40;;;;;;;8.30;4.90;;;5.50;99.90;;;;;;5035119;28;20041;-51
2022/12/28 00:15:26;;;;;;;8.63;5.13;;;5.40;99.90;;;;;;5035339;28;20116;-54
2022/12/28 00:18:12;;;;;;;9.07;5.15;;;5.30;99.90;;;;;;5035351;28;20502;-52
2022/12/28 00:20:59;;;;;;;7.15;5.20;;;5.30;99.90;;;;;;5034686;28;20037;-54
2022/12/28 00:23:48;;;;;;;10.25;5.07;;;5.40;99.90;;;;;;5035409;28;20486;-55
2022/12/28 00:26:35;;;;;;;9.65;4.95;;;5.30;99.90;;;;;;5034003;28;20041;-51
2022/12/28 00:29:21;;;;;;;10.88;4.97;;;5.30;99.90;;;;;;5034867;28;20025;-53
2022/12/28 00:32:07;;;;;;;8.90;4.82;;;5.30;99.90;;;;;;5033088;28;20127;-51
2022/12/28 00:34:53;;;;;;;10.30;4.75;;;5.30;99.90;;;;;;5033438;28;20069;-53
2022/12/28 00:37:39;;;;;;;7.38;4.80;;;5.20;99.90;;;;;;5034861;28;20048;-51
2022/12/28 00:40:24;;;;;;;8.35;5.18;;;5.20;99.90;;;;;;5034910;28;20033;-53
2022/12/28 00:43:10;;;;;;;8.48;4.85;;;5.10;99.90;;;;;;5034851;28;20044;-53
2022/12/28 00:45:56;;;;;;;7.40;4.55;;;5.20;99.90;;;;;;5034900;28;20112;-54
2022/12/28 00:48:43;;;;;;;7.43;4.50;;;5.20;99.90;;;;;;5034893;28;20033;-50
2022/12/28 00:51:28;;;;;;;9.93;4.57;;;5.20;99.90;;;;;;5034459;28;20038;-51
2022/12/28 00:54:14;;;;;;;6.60;3.97;;;5.20;99.90;;;;;;5034620;28;20029;-55
2022/12/28 00:57:00;;;;;;;7.55;4.90;;;5.20;99.90;;;;;;5034486;28;20041;-54
2022/12/28 00:59:46;;;;;;;6.97;4.30;;;5.20;99.90;;;;;;5032220;28;20087;-53
2022/12/28 01:02:32;;;;;;;9.38;3.90;;;5.10;99.90;;;;;;5034099;28;20032;-51
2022/12/28 01:05:18;;;;;;;10.50;4.57;;;5.10;99.90;;;;;;5034702;28;20120;-53
2022/12/28 01:08:04;;;;;;;8.32;4.25;;;5.10;99.90;;;;;;5034309;28;20418;-51
2022/12/28 01:10:50;;;;;;;6.90;4.38;;;5.10;99.90;;;;;;5033970;28;20533;-54
2022/12/28 01:13:37;;;;;;;8.90;4.10;;;5.10;99.90;;;;;;5034482;28;20040;-50
2022/12/28 01:16:34;;;;;;;6.00;3.92;;;5.10;99.90;;;;;;5034022;28;20502;-50
2022/12/28 01:19:21;;;;;;;6.45;4.05;;;5.10;99.90;;;;;;5032879;28;20489;-53
2022/12/28 01:22:09;;;;;;;8.15;3.90;;;5.10;99.90;;;;;;5033752;28;20025;-53
2022/12/28 01:24:54;;;;;;;7.15;4.32;;;5.10;99.90;;;;;;5032418;28;20022;-50
2022/12/28 01:27:40;;;;;;;5.10;3.60;;;5.10;99.90;;;;;;5031621;28;20029;-54
2022/12/28 01:30:29;;;;;;;7.32;4.43;;;5.20;99.90;;;;;;5031003;28;20172;-56
2022/12/28 01:33:15;;;;;;;10.68;4.05;;;5.20;99.90;;;;;;5027201;28;20084;-52
2022/12/28 01:36:15;;;;;;;7.28;3.80;;;5.20;99.90;;;;;;5028366;28;20042;-50
2022/12/28 01:39:04;;;;;;;8.55;4.28;;;5.20;99.90;;;;;;5026837;28;20062;-52
2022/12/28 01:41:50;;;;;;;7.00;4.13;;;5.10;99.90;;;;;;5033662;28;20491;-52
2022/12/28 01:44:41;;;;;;;9.20;3.88;;;5.20;99.90;;;;;;5031678;28;20548;-51
2022/12/28 01:47:33;;;;;;;8.20;4.28;;;5.20;99.90;;;;;;5033564;28;20083;-54
2022/12/28 01:50:25;;;;;;;6.47;4.30;;;5.20;99.90;;;;;;5031089;28;20057;-53
2022/12/28 01:53:11;;;;;;;6.30;3.78;;;5.20;99.90;;;;;;5030700;28;20037;-51
2022/12/28 01:55:57;;;;;;;8.93;4.25;;;5.20;99.90;;;;;;5032249;28;20117;-50
2022/12/28 01:58:44;;;;;;;8.70;4.18;;;5.20;99.90;;;;;;5014416;28;20498;-52
2022/12/28 02:01:31;;;;;;;6.20;3.78;;;5.30;99.90;;;;;;5012825;28;20034;-50
2022/12/28 02:04:17;;;;;;;7.85;3.90;;;5.30;99.90;;;;;;5012046;28;20034;-50
2022/12/28 02:07:03;;;;;;;9.20;4.20;;;5.30;99.90;;;;;;5013535;28;20030;-50
2022/12/28 02:09:51;;;;;;;10.27;5.13;;;5.30;99.90;;;;;;5013591;28;20049;-53
2022/12/28 02:12:38;;;;;;;8.63;5.35;;;5.30;99.90;;;;;;5012841;28;20029;-51
2022/12/28 02:15:24;;;;;;;12.63;6.43;;;5.30;99.90;;;;;;5013187;28;20464;-51
2022/12/28 02:18:11;;;;;;;10.40;5.45;;;5.30;99.90;;;;;;5012746;28;20041;-50
2022/12/28 02:21:22;;;;;;;11.57;6.25;;;5.40;99.90;;;;;;5012504;28;20399;-53
2022/12/28 02:24:32;;;;;;;8.68;5.95;;;5.30;99.90;;;;;;5013213;28;20014;-54
2022/12/28 02:27:48;;;;;;;7.65;5.03;;;5.30;99.90;;;;;;5012547;28;20049;-50
2022/12/28 02:30:42;;;;;;;7.25;4.43;;;5.30;99.90;;;;;;5011307;28;20022;-52
2022/12/28 02:33:41;;;;;;;9.10;4.00;;;5.40;99.90;;;;;;5011839;28;20065;-51
2022/12/28 02:36:33;;;;;;;6.93;4.53;;;5.40;99.90;;;;;;5012354;28;20383;-52
2022/12/28 02:39:30;;;;;;;9.85;4.10;;;5.30;99.90;;;;;;5012787;28;20058;-53
2022/12/28 02:42:17;;;;;;;6.97;3.95;;;5.20;99.90;;;;;;5012143;28;20608;-54
2022/12/28 02:51:21;;;;;;;7.35;3.80;;;5.10;99.90;;;;;;5011806;28;20037;-53
2022/12/28 02:58:01;;;;;;;11.38;4.30;;;5.20;99.90;;;;;;5016613;28;20628;-49
2022/12/28 03:01:23;;;;;;;11.90;3.88;;;5.30;99.90;;;;;;5011652;28;20026;-52
2022/12/28 03:04:26;;;;;;;7.40;3.65;;;5.20;99.90;;;;;;5014948;28;20045;-52
2022/12/28 03:11:10;;;;;;;11.00;4.55;;;5.10;99.90;;;;;;5010841;28;20026;-55
2022/12/28 03:14:05;;;;;;;6.88;3.80;;;5.10;99.90;;;;;;5010630;28;20028;-50
2022/12/28 03:32:35;;;;;;;8.85;3.53;;;5.20;99.90;;;;;;5011808;28;20498;-50
2022/12/28 03:35:26;;;;;;;11.77;5.55;;;5.20;99.90;;;;;;5022320;28;20059;-51
2022/12/28 03:38:26;;;;;;;9.00;3.70;;;5.30;99.90;;;;;;5031763;28;20022;-50
2022/12/28 03:41:16;;;;;;;6.80;4.75;;;5.30;99.90;;;;;;5029800;28;20030;-48
2022/12/28 03:44:09;;;;;;;8.52;3.90;;;5.30;99.90;;;;;;5028743;28;20457;-52
2022/12/28 03:47:01;;;;;;;8.50;3.95;;;5.30;99.90;;;;;;5025052;28;20063;-51
2022/12/28 03:49:46;;;;;;;9.55;4.53;;;5.30;99.90;;;;;;5021852;28;20062;-50
2022/12/28 03:52:32;;;;;;;8.68;3.75;;;5.40;99.90;;;;;;5020233;28;20021;-50
2022/12/28 03:55:18;;;;;;;6.10;3.30;;;5.30;99.90;;;;;;5020877;28;20050;-52
2022/12/28 03:58:05;;;;;;;7.00;3.85;;;5.30;99.90;;;;;;5020896;28;20025;-53
2022/12/28 04:00:51;;;;;;;7.45;4.00;;;5.40;99.90;;;;;;5022661;28;20065;-50
2022/12/28 04:03:38;;;;;;;6.28;3.42;;;5.30;99.90;;;;;;5021153;28;20032;-50
2022/12/28 04:06:25;;;;;;;6.95;3.72;;;5.30;99.90;;;;;;5019782;28;20026;-55
2022/12/28 04:09:11;;;;;;;6.40;3.00;;;5.30;99.90;;;;;;5022179;28;20575;-49
2022/12/28 04:11:57;;;;;;;6.85;3.53;;;5.40;99.90;;;;;;5012061;28;20038;-50
2022/12/28 04:14:43;;;;;;;6.85;3.88;;;5.30;99.90;;;;;;5012391;28;20064;-49
2022/12/28 04:17:29;;;;;;;5.03;3.72;;;5.40;99.90;;;;;;5012165;28;20044;-50
2022/12/28 04:20:15;;;;;;;10.43;4.38;;;5.30;99.90;;;;;;5014538;28;20079;-48
2022/12/28 04:23:01;;;;;;;10.90;4.53;;;5.30;99.90;;;;;;5025328;28;20509;-56
2022/12/28 04:26:02;;;;;;;7.60;3.55;;;5.40;99.90;;;;;;5024996;28;20034;-54
2022/12/28 04:28:48;;;;;;;7.10;3.40;;;5.40;99.90;;;;;;5024996;28;20186;-52
2022/12/28 04:31:34;;;;;;;7.63;3.55;;;5.30;99.90;;;;;;5027196;28;20033;-50
2022/12/28 04:34:20;;;;;;;9.02;3.70;;;5.40;99.90;;;;;;5024151;28;20030;-52
2022/12/28 04:37:06;;;;;;;6.20;4.32;;;5.50;99.90;;;;;;5025075;28;20029;-52
2022/12/28 04:39:52;;;;;;;6.63;3.55;;;5.50;99.90;;;;;;5028726;28;20026;-50
2022/12/28 04:42:37;;;;;;;9.18;3.25;;;5.60;99.90;;;;;;5047203;28;20073;-50
2022/12/28 04:45:23;;;;;;;11.48;3.80;;;5.60;99.90;;;;;;5045886;28;20113;-54
2022/12/28 04:48:09;;;;;;;5.80;3.40;;;5.60;99.90;;;;;;5039410;28;20055;-49
2022/12/28 04:50:55;;;;;;;6.80;3.33;;;5.70;99.90;;;;;;5026959;28;20033;-50
2022/12/28 04:53:42;;;;;;;6.53;3.50;;;5.60;99.90;;;;;;5025393;28;20129;-51
2022/12/28 04:56:28;;;;;;;6.90;3.30;;;5.60;99.90;;;;;;5025943;28;20026;-51
2022/12/28 04:59:14;;;;;;;7.82;3.90;;;5.60;99.90;;;;;;5025448;28;20030;-51
2022/12/28 05:01:59;;;;;;;6.80;3.53;;;5.50;99.90;;;;;;5027538;28;20105;-50
2022/12/28 05:04:45;;;;;;;8.60;3.80;;;5.60;99.90;;;;;;5034782;28;20053;-52
2022/12/28 05:07:31;;;;;;;6.03;3.47;;;5.50;99.90;;;;;;5034049;28;20201;-54
2022/12/28 05:10:17;;;;;;;4.28;3.40;;;5.60;99.90;;;;;;5034423;28;20030;-53
2022/12/28 05:13:03;;;;;;;6.97;3.95;;;5.60;99.90;;;;;;5035554;28;20030;-50
2022/12/28 05:15:49;;;;;;;6.22;3.92;;;5.70;99.90;;;;;;5034787;28;20112;-49
2022/12/28 05:18:36;;;;;;;8.90;3.80;;;5.60;99.90;;;;;;5035347;28;20370;-50
2022/12/28 05:21:24;;;;;;;6.72;3.85;;;5.70;99.90;;;;;;5034856;28;20484;-55
2022/12/28 05:24:10;;;;;;;7.47;4.03;;;5.70;99.90;;;;;;5035079;28;20517;-49
2022/12/28 05:26:56;;;;;;;8.30;4.20;;;5.70;99.90;;;;;;5034120;28;20160;-52
2022/12/28 05:29:42;;;;;;;9.95;4.60;;;5.80;99.90;;;;;;5033801;28;20045;-54
2022/12/28 05:32:28;;;;;;;9.25;4.28;;;5.80;99.90;;;;;;5033699;28;20061;-53
2022/12/28 05:35:13;;;;;;;8.60;4.72;;;5.70;99.90;;;;;;5034259;28;20025;-52
2022/12/28 05:37:59;;;;;;;8.05;4.38;;;5.70;99.90;;;;;;5034278;28;20435;-51
2022/12/28 05:40:45;;;;;;;7.32;4.30;;;5.70;99.90;;;;;;5034389;28;20104;-51
2022/12/28 05:43:32;;;;;;;5.78;3.80;;;5.70;99.90;;;;;;5034825;28;20490;-52
2022/12/28 05:46:20;;;;;;;6.13;4.25;;;5.70;99.90;;;;;;5034565;28;20029;-52
2022/12/28 05:49:08;;;;;;;9.45;5.88;;;5.70;99.90;;;;;;5033472;28;20087;-51
2022/12/28 05:51:54;;;;;;;8.13;4.45;;;5.70;99.90;;;;;;5034968;28;20548;-53
2022/12/28 05:54:40;;;;;;;7.40;4.53;;;5.70;99.90;;;;;;5033900;28;20441;-49
2022/12/28 05:57:25;;;;;;;6.00;4.50;;;5.70;99.90;;;;;;5034069;28;20037;-55
2022/12/28 06:00:12;;;;;;;7.10;4.85;;;5.80;99.90;;;;;;5038212;28;20029;-49
2022/12/28 06:02:58;;;;;;;16.13;4.80;;;5.80;99.90;;;;;;5033636;28;20124;-51
2022/12/28 06:05:44;;;;;;;9.18;4.75;;;5.80;99.90;;;;;;5033543;28;20482;-51
2022/12/28 06:08:30;;;;;;;6.15;4.18;;;5.90;99.90;;;;;;5034243;28;20037;-52
2022/12/28 06:11:25;;;;;;;7.25;4.20;;;5.90;99.90;;;;;;5032769;28;20024;-50
2022/12/28 06:14:11;;;;;;;6.07;3.65;;;5.90;99.90;;;;;;5034181;28;20025;-51
2022/12/28 06:16:57;;;;;;;7.35;4.22;;;5.90;99.90;;;;;;5032900;28;20175;-50
2022/12/28 06:19:43;;;;;;;8.48;4.18;;;5.90;99.90;;;;;;5032830;28;20022;-52
2022/12/28 06:22:29;;;;;;;7.53;4.28;;;6.00;99.90;;;;;;5033427;28;20432;-49
2022/12/28 06:25:14;;;;;;;8.30;4.32;;;6.00;99.90;;;;;;5033563;28;20022;-51
2022/12/28 06:28:00;;;;;;;6.32;4.57;;;6.00;99.90;;;;;;5033375;28;20053;-53
2022/12/28 06:30:46;;;;;;;8.48;3.88;;;6.00;99.90;;;;;;5031895;28;20029;-50
2022/12/28 06:33:33;;;;;;;8.15;4.05;;;6.00;99.90;;;;;;5033064;28;20022;-50
2022/12/28 06:36:22;;;;;;;8.80;3.72;;;6.10;99.90;;;;;;5032895;28;20064;-50
2022/12/28 06:39:13;;;;;;;6.07;4.38;;;6.10;99.90;;;;;;5032971;28;20091;-52
2022/12/28 06:41:59;;;;;;;8.75;4.35;;;6.10;99.90;;;;;;5032689;28;20057;-54
2022/12/28 06:44:45;;;;;;;5.32;4.10;;;6.10;99.90;;;;;;5031691;28;20105;-52
2022/12/28 06:47:32;;;;;;;6.78;3.63;;;6.10;99.90;;;;;;5032733;28;20548;-51
2022/12/28 06:50:18;;;;;;;6.63;3.60;;;6.20;99.90;;;;;;5033168;28;20032;-53
2022/12/28 06:53:04;;;;;;;5.78;3.65;;;6.10;99.90;;;;;;5032897;28;20036;-52
2022/12/28 06:55:58;;;;;;;6.72;4.32;;;6.20;99.90;;;;;;5032734;28;20029;-53
2022/12/28 06:58:45;;;;;;;8.95;3.90;;;6.10;99.90;;;;;;5032969;28;20075;-58
2022/12/28 07:01:34;;;;;;;4.30;3.50;;;6.20;99.90;;;;;;5031873;28;20025;-54
2022/12/28 07:04:19;;;;;;;6.05;3.65;;;6.20;99.90;;;;;;5031007;28;20375;-53
2022/12/28 07:07:08;;;;;;;6.28;3.72;;;6.20;99.90;;;;;;5032765;28;20032;-52
2022/12/28 07:09:54;;;;;;;6.80;3.83;;;6.30;99.90;;;;;;5032910;28;20033;-53
2022/12/28 07:12:40;;;;;;;4.80;3.40;;;6.30;99.90;;;;;;5032894;28;20038;-49
2022/12/28 07:15:25;;;;;;;6.07;3.70;;;6.30;99.90;;;;;;5032099;28;20493;-54
2022/12/28 07:18:11;;;;;;;7.47;3.90;;;6.30;99.90;;;;;;5032579;28;20485;-51
2022/12/28 07:21:03;;;;;;;5.20;4.00;;;6.30;99.90;;;;;;5032148;28;20470;-55
2022/12/28 07:23:50;;;;;;;6.72;4.00;;;6.30;99.90;;;;;;5031840;28;20151;-50
2022/12/28 07:26:37;;;;;;;4.75;4.07;;;6.30;99.90;;;;;;5031814;28;20025;-50
2022/12/28 07:29:23;;;;;;;11.07;3.88;;;6.30;99.90;;;;;;5030062;28;20034;-58
2022/12/28 07:32:08;;;;;;;5.57;4.22;;;6.30;99.90;;;;;;5031673;28;20025;-51
2022/12/28 07:34:54;;;;;;;5.68;3.60;;;6.40;99.90;;;;;;5014935;28;20490;-54
2022/12/28 07:37:40;;;;;;;5.57;3.70;;;6.40;99.90;;;;;;5012209;28;20100;-52
2022/12/28 07:40:26;;;;;;;5.85;4.20;;;6.40;99.90;;;;;;5015197;28;20022;-55
2022/12/28 07:43:12;;;;;;;4.43;3.58;;;6.50;99.90;;;;;;5015791;28;20113;-55
2022/12/28 07:46:04;;;;;;;5.85;3.58;;;6.50;99.90;;;;;;5016099;28;20057;-54
2022/12/28 07:48:50;;;;;;;4.97;3.88;;;6.50;99.90;;;;;;5014742;28;20100;-51
2022/12/28 07:51:37;;;;;;;5.20;3.47;;;6.50;99.90;;;;;;5013035;28;20028;-49
2022/12/28 07:54:23;;;;;;;7.45;4.10;;;6.50;99.90;;;;;;5011704;28;20026;-55
2022/12/28 07:57:09;;;;;;;9.75;4.20;;;6.60;99.90;;;;;;5015498;28;20069;-54
2022/12/28 07:59:55;;;;;;;24.55;4.82;;;6.50;99.90;;;;;;5017025;28;20114;-53
2022/12/28 08:02:41;;;;;;;7.63;4.50;;;6.60;99.90;;;;;;5016932;28;20394;-54
2022/12/28 08:05:27;;;;;;;5.80;3.90;;;6.60;99.90;;;;;;5016687;28;20030;-55
2022/12/28 08:08:13;;;;;;;4.80;3.45;;;6.70;99.90;;;;;;5015700;28;20080;-53
2022/12/28 08:11:05;;;;;;;4.18;3.30;;;6.70;99.90;;;;;;5016150;28;20030;-52
2022/12/28 08:13:53;;;;;;;5.90;3.60;;;6.70;99.90;;;;;;5016024;28;20401;-54
2022/12/28 08:16:42;;;;;;;6.80;4.00;;;6.80;99.90;;;;;;5016354;28;20034;-52
2022/12/28 08:19:27;;;;;;;8.30;4.20;;;6.80;99.90;;;;;;5016558;28;20129;-54
2022/12/28 08:22:13;;;;;;;7.32;4.13;;;6.80;99.90;;;;;;5015571;28;20434;-52
2022/12/28 08:24:59;;;;;;;7.50;3.90;;;6.80;99.90;;;;;;5016446;28;20030;-54
2022/12/28 08:27:45;;;;;;;6.72;3.95;;;6.80;99.90;;;;;;5015939;28;20517;-52
2022/12/28 08:30:31;;;;;;;5.68;3.95;;;6.80;99.90;;;;;;5017872;28;20037;-52
2022/12/28 08:33:17;;;;;;;6.00;4.10;;;6.80;99.90;;;;;;5035139;28;20436;-54
2022/12/28 08:36:04;;;;;;;6.70;3.95;;;6.80;99.90;;;;;;5035902;28;20059;-51
2022/12/28 08:38:50;;;;;;;6.93;3.85;;;6.80;99.90;;;;;;5036016;28;20026;-51
2022/12/28 08:41:36;;;;;;;6.60;4.30;;;6.80;99.90;;;;;;5035522;28;20029;-50
2022/12/28 08:44:22;;;;;;;4.93;4.25;;;6.80;99.90;;;;;;5038226;28;20028;-53
2022/12/28 08:47:08;;;;;;;7.72;4.65;;;6.80;99.90;;;;;;5035369;28;20068;-50
2022/12/28 08:49:54;;;;;;;5.53;3.50;;;6.80;99.90;;;;;;5035383;28;20029;-49
2022/12/28 08:52:40;;;;;;;7.50;4.43;;;6.90;99.90;;;;;;5035259;28;20033;-52
2022/12/28 08:55:26;;;;;;;4.82;3.97;;;6.90;99.90;;;;;;5035754;28;20052;-54
2022/12/28 08:58:12;;;;;;;7.90;4.25;;;7.00;99.90;;;;;;5035809;28;20030;-50
2022/12/28 09:01:08;;;;;;;9.13;4.13;;;7.00;99.90;;;;;;5034716;28;20120;-54
2022/12/28 09:03:57;;;;;;;7.35;4.63;;;7.00;99.90;;;;;;5028482;28;20022;-53
2022/12/28 09:06:43;;;;;;;5.30;3.97;;;7.10;99.90;;;;;;5032180;28;20030;-52
2022/12/28 09:09:29;;;;;;;6.75;4.15;;;7.10;99.90;;;;;;5034783;28;20067;-51
2022/12/28 09:12:15;;;;;;;7.72;4.03;;;7.10;99.90;;;;;;5034678;28;20025;-54
2022/12/28 09:15:01;;;;;;;6.65;3.88;;;7.20;99.90;;;;;;5035136;28;20025;-54
2022/12/28 09:17:47;;;;;;;6.78;3.53;;;7.30;99.90;;;;;;5034205;28;20034;-52
2022/12/28 09:20:34;;;;;;;5.15;3.42;;;7.30;99.90;;;;;;5030907;28;20112;-50
2022/12/28 09:23:20;;;;;;;5.88;3.90;;;7.30;99.90;;;;;;5034852;28;20028;-48
2022/12/28 09:26:09;;;;;;;5.97;3.97;;;7.30;99.90;;;;;;5035228;28;20116;-54
2022/12/28 09:29:00;;;;;;;6.45;3.70;;;7.30;99.90;;;;;;5034921;28;20057;-51
2022/12/28 09:31:46;;;;;;;6.57;4.10;;;7.40;99.90;;;;;;5034756;28;20021;-50
2022/12/28 09:34:34;;;;;;;5.82;3.97;;;7.40;99.90;;;;;;5034484;28;20540;-49
2022/12/28 09:37:20;;;;;;;7.25;4.45;;;7.40;99.90;;;;;;5033399;28;20021;-49
2022/12/28 09:40:08;;;;;;;9.48;4.65;;;7.60;99.90;;;;;;5032516;28;20034;-50
2022/12/28 09:42:54;;;;;;;4.82;3.90;;;7.50;99.90;;;;;;5029193;28;20026;-48
2022/12/28 09:45:42;;;;;;;7.07;3.95;;;7.50;99.90;;;;;;5032993;28;20030;-53
2022/12/28 09:48:29;;;;;;;5.65;4.20;;;7.50;99.90;;;;;;5033110;28;20025;-54
2022/12/28 09:51:16;;;;;;;6.50;4.43;;;7.50;99.90;;;;;;5033009;28;20026;-51
2022/12/28 09:54:03;;;;;;;7.55;4.88;;;7.60;99.90;;;;;;5034267;28;20406;-51
2022/12/28 09:56:50;;;;;;;7.80;4.82;;;7.60;99.90;;;;;;5034206;28;20088;-50
2022/12/28 09:59:36;;;;;;;5.45;4.20;;;7.60;99.90;;;;;;5033471;28;20441;-55
2022/12/28 10:02:30;;;;;;;6.47;4.65;;;7.70;99.90;;;;;;5028866;28;20088;-52
2022/12/28 10:05:18;;;;;;;7.10;4.45;;;7.70;99.90;;;;;;5025778;28;20367;-55
2022/12/28 10:08:04;;;;;;;7.78;4.75;;;7.80;99.90;;;;;;5023943;28;20052;-53
2022/12/28 10:10:51;;;;;;;6.00;4.28;;;7.80;99.90;;;;;;5021165;28;20037;-52
2022/12/28 10:13:38;;;;;;;6.70;4.25;;;7.80;99.90;;;;;;5024221;28;20049;-52
2022/12/28 10:16:27;;;;;;;7.85;4.30;;;7.90;99.90;;;;;;5022762;28;20561;-54
2022/12/28 10:19:22;;;;;;;4.70;3.92;;;7.90;99.90;;;;;;5022740;28;20025;-54
2022/12/28 10:22:12;;;;;;;7.95;5.53;;;8.00;99.90;;;;;;5020738;28;20018;-52
2022/12/28 10:24:58;;;;;;;8.02;4.60;;;8.00;99.90;;;;;;5028886;28;20049;-49
2022/12/28 10:27:44;;;;;;;7.95;3.90;;;8.00;99.90;;;;;;5032831;28;20040;-51
2022/12/28 10:30:30;;;;;;;4.68;3.67;;;8.10;99.90;;;;;;5032294;28;20048;-52
2022/12/28 10:33:18;;;;;;;4.57;3.75;;;8.10;99.90;;;;;;5032571;28;20057;-48
2022/12/28 10:36:04;;;;;;;4.75;3.75;;;8.10;99.90;;;;;;5033515;28;20038;-52
2022/12/28 10:38:54;;;;;;;7.82;4.35;;;8.10;99.90;;;;;;5033256;28;20041;-51
2022/12/28 10:41:40;;;;;;;5.22;3.80;;;8.10;99.90;;;;;;5032683;28;20038;-51
2022/12/28 10:44:30;;;;;;;9.20;4.60;;;8.20;99.90;;;;;;5032479;28;20069;-50
2022/12/28 10:47:45;;;;;;;7.70;4.40;;;8.30;99.90;;;;;;5033387;28;20029;-50
2022/12/28 10:50:51;;;;;;;8.38;4.00;;;8.30;99.90;;;;;;5032904;28;20036;-50
2022/12/28 10:53:45;;;;;;;6.85;4.05;;;8.30;99.90;;;;;;5033327;28;20055;-50
2022/12/28 10:56:43;;;;;;;4.72;3.88;;;8.30;99.90;;;;;;5033239;28;20523;-54
2022/12/28 10:59:30;;;;;;;6.07;3.70;;;8.30;99.90;;;;;;5030488;28;20075;-53
2022/12/28 11:02:31;;;;;;;7.97;3.80;;;8.40;99.90;;;;;;5015283;28;20041;-49
2022/12/28 11:05:22;;;;;;;6.97;4.00;;;8.40;99.90;;;;;;5024934;28;20021;-50
2022/12/28 11:08:12;;;;;;;5.90;3.97;;;8.30;99.90;;;;;;5023942;28;20438;-53
2022/12/28 11:10:58;;;;;;;5.28;4.03;;;8.40;99.90;;;;;;5022447;28;20490;-48
2022/12/28 11:13:49;;;;;;;6.50;3.80;;;8.30;99.90;;;;;;5023446;28;20034;-51
2022/12/28 11:16:36;;;;;;;6.38;4.20;;;8.30;99.90;;;;;;5021186;28;20076;-51
2022/12/28 11:19:24;;;;;;;6.47;4.40;;;8.30;99.90;;;;;;5025334;28;20020;-53
2022/12/28 11:22:13;;;;;;;4.93;4.10;;;8.30;99.90;;;;;;5023626;28;20017;-54
2022/12/28 11:25:00;;;;;;;6.10;4.75;;;8.40;99.90;;;;;;5023750;28;20048;-54
2022/12/28 11:27:47;;;;;;;7.30;4.47;;;8.40;99.90;;;;;;5029181;28;20103;-51
2022/12/28 11:30:32;;;;;;;4.10;3.67;;;8.40;99.90;;;;;;5021678;28;20106;-51
2022/12/28 11:33:39;;;;;;;6.55;4.50;;;8.40;99.90;;;;;;5021125;28;20021;-52
2022/12/28 11:36:26;;;;;;;8.25;5.10;;;8.50;99.90;;;;;;5024052;28;20462;-50
2022/12/28 11:39:24;;;;;;;6.10;3.92;;;8.40;99.90;;;;;;5022724;28;20053;-53
2022/12/28 11:42:31;;;;;;;7.90;4.13;;;8.40;99.90;;;;;;5021855;28;20014;-55
2022/12/28 11:45:50;;;;;;;5.53;3.90;;;8.40;99.90;;;;;;5023719;28;20394;-51
2022/12/28 11:48:42;;;;;;;6.50;3.83;;;8.50;99.90;;;;;;5022212;28;20061;-52
2022/12/28 11:51:33;;;;;;;6.65;3.97;;;8.50;99.90;;;;;;5019329;28;20025;-52
2022/12/28 11:54:48;;;;;;;7.13;4.00;;;8.50;99.90;;;;;;5021779;28;20423;-51
2022/12/28 11:57:43;;;;;;;6.50;3.38;;;8.60;99.90;;;;;;5021670;28;20395;-50
2022/12/28 12:00:47;;;;;;;6.25;3.50;;;8.60;99.90;;;;;;5021787;28;20025;-52
2022/12/28 12:03:58;;;;;;;5.28;3.55;;;8.60;99.90;;;;;;5022516;28;20481;-53
2022/12/28 12:06:44;;;;;;;6.40;4.25;;;8.70;99.90;;;;;;5020098;28;20034;-49
2022/12/28 12:09:31;;;;;;;5.00;3.20;;;8.70;99.90;;;;;;5021113;28;20060;-54
2022/12/28 12:12:18;;;;;;;6.00;3.70;;;8.70;99.90;;;;;;5021148;28;20029;-49
2022/12/28 12:15:15;;;;;;;7.95;3.50;;;8.70;99.90;;;;;;5023068;28;20461;-53
2022/12/28 12:18:03;;;;;;;6.68;3.15;;;8.70;99.90;;;;;;5022453;28;20506;-51
2022/12/28 12:21:03;;;;;;;8.60;3.30;;;8.80;99.90;;;;;;5022080;28;20041;-48
2022/12/28 12:23:54;;;;;;;5.00;3.28;;;8.70;99.90;;;;;;5021848;28;20073;-54
2022/12/28 12:26:49;;;;;;;8.63;3.88;;;8.80;99.90;;;;;;5021541;28;20121;-48
2022/12/28 12:29:41;;;;;;;;;;;8.80;99.90;;;;;;5022526;28;20100;-54
2022/12/28 12:32:42;;;;;;;6.90;3.45;;;8.90;99.90;;;;;;5023100;28;20274;-51
2022/12/28 12:35:33;;;;;;;4.32;3.03;;;9.00;99.90;;;;;;5021349;28;20022;-54
2022/12/28 12:38:41;;;;;;;4.60;2.90;;;9.10;99.90;;;;;;5021911;28;20576;-50
2022/12/28 12:41:48;;;;;;;7.22;3.72;;;9.10;99.90;;;;;;5011709;28;20548;-52
2022/12/28 12:44:47;;;;;;;5.20;3.78;;;9.20;99.90;;;;;;5014782;28;20026;-52
2022/12/28 12:47:59;;;;;;;4.30;3.05;;;9.30;99.90;;;;;;5016203;28;20034;-52
2022/12/28 12:51:15;;;;;;;4.78;3.20;;;9.30;99.90;;;;;;5036512;28;20520;-53
2022/12/28 12:54:49;;;;;;;5.18;3.63;;;9.40;99.90;;;;;;5043179;28;20026;-52
2022/12/28 12:57:43;;;;;;;4.43;3.75;;;9.30;99.90;;;;;;5034027;28;20033;-54
2022/12/28 13:00:48;;;;;;;4.25;3.25;;;9.30;99.90;;;;;;5038802;28;20090;-52
2022/12/28 13:03:43;;;;;;;5.57;3.50;;;9.20;99.90;;;;;;5033382;28;20021;-53
2022/12/28 13:06:30;;;;;;;8.13;4.07;;;9.20;99.90;;;;;;5036393;28;20061;-50
2022/12/28 13:09:18;;;;;;;6.38;3.70;;;9.20;99.90;;;;;;5047471;28;20031;-55
2022/12/28 13:12:13;;;;;;;4.57;3.33;;;9.10;99.90;;;;;;5045037;28;20504;-51
2022/12/28 13:15:01;;;;;;;7.72;3.35;;;9.20;99.90;;;;;;5035504;28;20083;-50
2022/12/28 13:17:59;;;;;;;6.30;4.00;;;9.30;99.90;;;;;;5033278;28;20072;-49
2022/12/28 13:20:54;;;;;;;6.57;2.92;;;9.40;99.90;;;;;;5029469;28;20021;-48
2022/12/28 13:23:44;;;;;;;8.15;3.88;;;9.60;99.90;;;;;;5025771;28;20022;-49
2022/12/28 13:26:33;;;;;;;8.05;3.83;;;9.70;99.90;;;;;;5024045;28;20041;-49
2022/12/28 13:29:22;;;;;;;6.05;3.55;;;9.80;99.90;;;;;;5022494;28;20033;-52
2022/12/28 13:32:33;;;;;;;5.03;3.08;;;9.70;99.90;;;;;;5024220;28;20026;-49
2022/12/28 13:35:26;;;;;;;4.97;3.22;;;9.70;99.90;;;;;;5043882;28;20025;-50
2022/12/28 13:38:14;;;;;;;8.05;3.47;;;9.60;99.90;;;;;;5025352;28;20596;-54
2022/12/28 13:41:01;;;;;;;6.55;3.55;;;9.60;99.90;;;;;;5023874;28;20029;-51
2022/12/28 13:44:10;;;;;;;4.88;3.25;;;9.50;99.90;;;;;;5024818;28;20033;-52
2022/12/28 13:47:05;;;;;;;4.63;3.22;;;9.60;99.90;;;;;;5023956;28;20379;-49
2022/12/28 13:49:59;;;;;;;4.15;3.17;;;9.60;99.90;;;;;;5024038;28;20152;-47
2022/12/28 13:53:07;;;;;;;9.18;3.95;;;9.70;99.90;;;;;;5030138;28;20063;-46
2022/12/28 13:56:03;;;;;;;5.80;3.45;;;9.60;99.90;;;;;;5023315;28;20025;-52
2022/12/28 13:58:54;;;;;;;4.10;3.00;;;9.70;99.90;;;;;;5023874;28;20831;-54
2022/12/28 14:01:43;;;;;;;5.10;3.50;;;9.70;99.90;;;;;;5023819;28;20033;-49
2022/12/28 14:04:30;;;;;;;5.80;3.42;;;9.80;99.90;;;;;;5024009;28;20371;-49
2022/12/28 14:07:18;;;;;;;6.18;3.58;;;9.90;99.90;;;;;;5024337;28;20022;-50
2022/12/28 14:10:04;;;;;;;3.72;3.00;;;9.70;99.90;;;;;;5023478;28;20125;-48
2022/12/28 14:12:51;;;;;;;5.50;3.30;;;9.60;99.90;;;;;;5022690;28;20072;-48
2022/12/28 14:15:37;;;;;;;5.45;3.70;;;9.30;99.90;;;;;;5023123;28;20490;-52
2022/12/28 14:18:24;;;;;;;5.72;3.38;;;9.20;99.90;;;;;;5023741;28;20025;-52
2022/12/28 14:21:10;;;;;;;6.70;3.47;;;9.20;99.90;;;;;;5032675;28;20076;-47
2022/12/28 14:24:03;;;;;;;5.63;3.40;;;9.10;99.90;;;;;;5031524;28;20029;-48
2022/12/28 14:26:52;;;;;;;6.60;3.20;;;9.10;99.90;;;;;;5027210;28;20033;-49
2022/12/28 14:29:38;;;;;;;5.93;3.90;;;9.10;99.90;;;;;;5033077;28;20079;-51
2022/12/28 14:32:25;;;;;;;6.95;3.30;;;9.10;99.90;;;;;;5023813;28;20521;-48
2022/12/28 14:35:23;;;;;;;8.80;5.68;;;9.00;99.90;;;;;;5025446;28;20026;-47
2022/12/28 14:38:18;;;;;;;5.53;3.60;;;9.00;99.90;;;;;;5023106;28;20030;-49
2022/12/28 14:41:04;;;;;;;5.25;3.25;;;9.00;99.90;;;;;;5021563;28;20022;-51
2022/12/28 14:43:53;;;;;;;4.38;3.78;;;9.10;99.90;;;;;;5023421;28;20045;-50
2022/12/28 14:46:41;;;;;;;6.45;3.63;;;9.10;99.90;;;;;;5024367;28;20398;-49
2022/12/28 14:49:27;;;;;;;8.35;4.00;;;9.10;99.90;;;;;;5022779;28;20443;-52
2022/12/28 14:52:15;;;;;;;7.00;4.35;;;9.00;99.90;;;;;;5027590;28;20033;-49
2022/12/28 14:55:27;;;;;;;6.25;4.55;;;9.00;99.90;;;;;;5026238;28;20033;-51
2022/12/28 14:58:23;;;;;;;6.53;3.78;;;9.00;99.90;;;;;;5024386;28;20087;-51
2022/12/28 15:01:09;;;;;;;11.20;4.55;;;9.00;99.90;;;;;;5028905;28;20482;-52
2022/12/28 15:03:57;;;;;;;3.95;3.33;;;9.00;99.90;;;;;;5014366;28;20032;-54
2022/12/28 15:06:43;;;;;;;4.78;3.50;;;9.00;99.90;;;;;;5013554;28;20022;-48
2022/12/28 15:09:29;;;;;;;6.15;5.13;;;9.00;99.90;;;;;;5011987;28;20033;-48
2022/12/28 15:12:19;;;;;;;6.65;3.88;;;9.00;99.90;;;;;;5013319;28;20034;-54
2022/12/28 15:15:05;;;;;;;4.88;3.50;;;9.00;99.90;;;;;;5013181;28;20465;-50
2022/12/28 15:17:51;;;;;;;6.72;3.60;;;9.10;99.90;;;;;;5012686;28;20026;-48
2022/12/28 15:20:37;;;;;;;4.80;3.40;;;9.10;99.90;;;;;;5013107;28;20026;-51
2022/12/28 15:23:23;;;;;;;4.65;3.33;;;9.00;99.90;;;;;;5013462;28;20033;-48
2022/12/28 15:26:11;;;;;;;5.55;3.10;;;9.00;99.90;;;;;;5012716;28;20042;-54